FOT weather

Forster (Wallis Is) Airport
New South Wales, Australia

Public forecast

Using degrees Celsius for public forecast. Weather courtesy of forecast.io.

METAR (pilot weather report)

Closest report is Taree Airport, 19.0 nm (35.2 km) N. Retrieved 2019/04/25 08:00 UTC (4 minutes ago):

YTRE 250800Z AUTO 05005KT 9999 // NCD 20/16 Q1017

TAF (pilot weather forecast)

Closest forecast is Taree Airport, 19.0 nm (35.2 km) N. Retrieved 2019/04/25 08:03 UTC (57 seconds ago):

TAF TAF YTRE 250656Z 2508/2520 02005KT CAVOK FM251500 33005KT CAVOK PROB30 2514/2520 0500 FG BKN001